Content — WDI4434 — position and weather

sailwx.info

Track history (hours):
 
Tides and Currents Weather Stations Pressure Air Temp Water Temp Dewpoint Dewpoint Depression Visibility Wind Speed Wind Dir Waves Ship Positions

Content

Owner: Miller, Ron D, Boyne City, MI. More information available from US FCC via Universal Licensing System.

Last reported at 2018-Mar-25 13:24 UTC. Time now 2018-Jun-24 11:01 UTC.
Position N 36°49' W 076°17'.
Warning: this ship's position is months out of date.

Length 14 m.

Type: Sailing vessel. MMSI: 367698590.

Date/timePositionNaut miles runAvg speedWind from/ knotsBaromVisibWave heightAir tempDewpointWater temp
2018-Mar-25 13:24N 36°49' W 076°17'2 6.0
2018-Mar-25 12:59N 36°46' W 076°18'120 2.5
2018-Mar-23 13:53N 34°48' W 076°41'2 5.8
2018-Mar-23 13:30N 34°46' W 076°41'3 6.2
2018-Mar-23 13:00N 34°43' W 076°40'1 1.1
2018-Mar-23 12:30N 34°43' W 076°40'0 0.0
2018-Mar-23 12:00N 34°43' W 076°40'0 0.0
2018-Mar-23 11:30N 34°43' W 076°40'0 0.0
2018-Mar-23 11:00N 34°43' W 076°40'0 0.0
2018-Mar-23 10:30N 34°43' W 076°40'0 0.0
2018-Mar-23 10:00N 34°43' W 076°40'0 0.0
2018-Mar-23 09:30N 34°43' W 076°40'0 0.0
2018-Mar-23 09:00N 34°43' W 076°40'0 0.0
2018-Mar-23 08:30N 34°43' W 076°40'0 0.0
2018-Mar-23 08:00N 34°43' W 076°40'0 0.0
2018-Mar-23 07:30N 34°43' W 076°40'1 2.1
2018-Mar-23 07:00N 34°42' W 076°40'  
2018-Mar-19 16:16N 32°07' W 080°54'1 5.0
2018-Mar-19 15:59N 32°06' W 080°54'3 5.7
2018-Mar-19 15:30N 32°05' W 080°57'2 3.8
2018-Mar-19 15:00N 32°03' W 080°58'1 1.2
2018-Mar-19 14:30N 32°03' W 080°58'0 0.0
2018-Mar-19 14:00N 32°03' W 080°58'0 0.0
2018-Mar-19 13:30N 32°03' W 080°58'0 0.0
2018-Mar-18 17:19N 32°03' W 080°58'0 0.0
2018-Mar-18 16:03N 32°03' W 080°58'0 0.2
2018-Mar-18 15:58N 32°03' W 080°58'1 3.1
2018-Mar-18 15:30N 32°04' W 080°59'0 0.5
2018-Mar-18 14:59N 32°04' W 080°59'0 0.0
2018-Mar-18 14:23N 32°04' W 080°59'0 0.0
2018-Mar-18 13:53N 32°04' W 080°59'0 0.0
2018-Mar-18 13:29N 32°04' W 080°59'0 0.0
2018-Mar-18 12:59N 32°04' W 080°59'0 0.0
2018-Mar-18 12:17N 32°04' W 080°59'0 0.0
2018-Mar-18 11:59N 32°04' W 080°59'0 0.0
2018-Mar-18 11:29N 32°04' W 080°59'0 0.0
2018-Mar-18 10:59N 32°04' W 080°59'0 0.0
2018-Mar-18 10:29N 32°04' W 080°59'0 0.0
2018-Mar-18 09:59N 32°04' W 080°59'0 0.0
2018-Mar-18 09:29N 32°04' W 080°59'0 0.0
2018-Mar-18 08:59N 32°04' W 080°59'0 0.0
2018-Mar-18 08:29N 32°04' W 080°59'0 0.0
2018-Mar-18 07:59N 32°04' W 080°59'0 0.0
2018-Mar-18 07:29N 32°04' W 080°59'0 0.0
2018-Mar-18 06:53N 32°04' W 080°59'0 0.0
2018-Mar-18 06:25N 32°04' W 080°59'0 0.5
2018-Mar-18 06:00N 32°04' W 080°59'2 4.6
2018-Mar-18 05:30N 32°04' W 080°57'  
Track history (hours):
 
Tides and Currents Weather Stations Pressure Air Temp Water Temp Dewpoint Dewpoint Depression Visibility Wind Speed Wind Dir Waves Ship Positions

Content

Owner: Miller, Ron D, Boyne City, MI. More information available from US FCC via Universal Licensing System.

Last reported at 2018-Mar-25 13:24 UTC. Time now 2018-Jun-24 11:01 UTC.
Position N 36°49' W 076°17'.
Warning: this ship's position is months out of date.

Length 14 m.

Type: Sailing vessel. MMSI: 367698590.

Date/timePositionNaut miles runAvg speedWind from/ knotsBaromVisibWave heightAir tempDewpointWater temp
2018-Mar-25 13:24N 36°49' W 076°17'2 6.0
2018-Mar-25 12:59N 36°46' W 076°18'120 2.5
2018-Mar-23 13:53N 34°48' W 076°41'2 5.8
2018-Mar-23 13:30N 34°46' W 076°41'3 6.2
2018-Mar-23 13:00N 34°43' W 076°40'1 1.1
2018-Mar-23 12:30N 34°43' W 076°40'0 0.0
2018-Mar-23 12:00N 34°43' W 076°40'0 0.0
2018-Mar-23 11:30N 34°43' W 076°40'0 0.0
2018-Mar-23 11:00N 34°43' W 076°40'0 0.0
2018-Mar-23 10:30N 34°43' W 076°40'0 0.0
2018-Mar-23 10:00N 34°43' W 076°40'0 0.0
2018-Mar-23 09:30N 34°43' W 076°40'0 0.0
2018-Mar-23 09:00N 34°43' W 076°40'0 0.0
2018-Mar-23 08:30N 34°43' W 076°40'0 0.0
2018-Mar-23 08:00N 34°43' W 076°40'0 0.0
2018-Mar-23 07:30N 34°43' W 076°40'1 2.1
2018-Mar-23 07:00N 34°42' W 076°40'  
2018-Mar-19 16:16N 32°07' W 080°54'1 5.0
2018-Mar-19 15:59N 32°06' W 080°54'3 5.7
2018-Mar-19 15:30N 32°05' W 080°57'2 3.8
2018-Mar-19 15:00N 32°03' W 080°58'1 1.2
2018-Mar-19 14:30N 32°03' W 080°58'0 0.0
2018-Mar-19 14:00N 32°03' W 080°58'0 0.0
2018-Mar-19 13:30N 32°03' W 080°58'0 0.0
2018-Mar-18 17:19N 32°03' W 080°58'0 0.0
2018-Mar-18 16:03N 32°03' W 080°58'0 0.2
2018-Mar-18 15:58N 32°03' W 080°58'1 3.1
2018-Mar-18 15:30N 32°04' W 080°59'0 0.5
2018-Mar-18 14:59N 32°04' W 080°59'0 0.0
2018-Mar-18 14:23N 32°04' W 080°59'0 0.0
2018-Mar-18 13:53N 32°04' W 080°59'0 0.0
2018-Mar-18 13:29N 32°04' W 080°59'0 0.0
2018-Mar-18 12:59N 32°04' W 080°59'0 0.0
2018-Mar-18 12:17N 32°04' W 080°59'0 0.0
2018-Mar-18 11:59N 32°04' W 080°59'0 0.0
2018-Mar-18 11:29N 32°04' W 080°59'0 0.0
2018-Mar-18 10:59N 32°04' W 080°59'0 0.0
2018-Mar-18 10:29N 32°04' W 080°59'0 0.0
2018-Mar-18 09:59N 32°04' W 080°59'0 0.0
2018-Mar-18 09:29N 32°04' W 080°59'0 0.0
2018-Mar-18 08:59N 32°04' W 080°59'0 0.0
2018-Mar-18 08:29N 32°04' W 080°59'0 0.0
2018-Mar-18 07:59N 32°04' W 080°59'0 0.0
2018-Mar-18 07:29N 32°04' W 080°59'0 0.0
2018-Mar-18 06:53N 32°04' W 080°59'0 0.0
2018-Mar-18 06:25N 32°04' W 080°59'0 0.5
2018-Mar-18 06:00N 32°04' W 080°59'2 4.6
2018-Mar-18 05:30N 32°04' W 080°57'  

Dump ship's entire track history